Time;durP1;ratioP1;P1;durP2;ratioP2;P2;SDS_P1;SDS_P2;PMS_P1;PMS_P2;Temp;Humidity;BMP_temperature;BMP_pressure;BME280_temperature;BME280_humidity;BME280_pressure;Samples;Min_cycle;Max_cycle;Signal;HPM_P1;HPM_P2
2023/09/02 00:02:33;;;;;;;6.00;1.80;;;16.10;99.90;;;;;;5045123;28;20547;-71
2023/09/02 00:05:18;;;;;;;5.17;1.60;;;16.10;99.90;;;;;;5039517;28;20947;-71
2023/09/02 00:08:04;;;;;;;2.80;1.43;;;16.00;99.90;;;;;;5042245;28;20474;-71
2023/09/02 00:10:50;;;;;;;7.63;2.07;;;16.00;99.90;;;;;;5041588;28;20514;-71
2023/09/02 00:13:38;;;;;;;8.23;1.83;;;15.90;99.90;;;;;;5043252;28;20458;-71
2023/09/02 00:16:24;;;;;;;30.03;2.50;;;15.80;99.90;;;;;;5039990;28;20598;-71
2023/09/02 00:19:10;;;;;;;4.70;2.23;;;15.80;99.90;;;;;;5043504;28;20451;-71
2023/09/02 00:21:55;;;;;;;14.70;2.90;;;15.80;99.90;;;;;;5046297;28;20453;-71
2023/09/02 00:24:41;;;;;;;4.63;1.97;;;15.80;99.90;;;;;;5042880;28;20437;-71
2023/09/02 00:27:26;;;;;;;10.50;2.60;;;15.90;99.90;;;;;;5041126;28;20440;-71
2023/09/02 00:30:14;;;;;;;7.60;2.10;;;15.90;99.90;;;;;;5039974;28;20443;-71
2023/09/02 00:32:59;;;;;;;3.77;1.70;;;15.90;99.90;;;;;;5050395;28;20463;-71
2023/09/02 00:35:45;;;;;;;15.10;2.17;;;15.90;99.90;;;;;;5041185;28;20517;-71
2023/09/02 00:38:31;;;;;;;3.30;1.63;;;15.90;99.90;;;;;;5043150;28;20461;-71
2023/09/02 00:41:26;;;;;;;22.03;2.30;;;15.80;99.90;;;;;;5041184;28;21258;-71
2023/09/02 00:44:12;;;;;;;41.03;2.53;;;15.80;99.90;;;;;;5043944;28;20439;-71
2023/09/02 00:47:02;;;;;;;36.97;2.20;;;15.80;99.90;;;;;;5040224;28;20452;-71
2023/09/02 00:49:48;;;;;;;6.23;2.00;;;15.80;99.90;;;;;;5041685;28;20818;-71
2023/09/02 00:52:34;;;;;;;7.10;1.77;;;15.80;99.90;;;;;;5043636;28;20471;-71
2023/09/02 00:55:21;;;;;;;15.03;2.33;;;15.70;99.90;;;;;;5036955;28;20544;-71
2023/09/02 00:58:07;;;;;;;21.13;2.20;;;15.60;99.90;;;;;;5043257;28;20541;-71
2023/09/02 01:00:53;;;;;;;21.63;2.10;;;15.70;99.90;;;;;;5045074;28;20495;-71
2023/09/02 01:03:41;;;;;;;3.17;1.40;;;15.70;99.90;;;;;;5044133;28;20529;-71
2023/09/02 01:06:27;;;;;;;5.63;2.20;;;15.80;99.90;;;;;;5047380;28;21058;-71
2023/09/02 01:09:14;;;;;;;4.90;1.90;;;15.90;99.90;;;;;;5046545;28;20417;-71
2023/09/02 01:11:59;;;;;;;10.30;2.17;;;16.00;99.90;;;;;;5041326;28;20557;-71
2023/09/02 01:14:45;;;;;;;31.17;2.40;;;16.00;99.90;;;;;;5040725;28;20666;-71
2023/09/02 01:17:31;;;;;;;40.20;2.40;;;16.00;99.90;;;;;;5036948;28;20500;-71
2023/09/02 01:20:19;;;;;;;16.97;2.50;;;16.10;99.90;;;;;;5043501;28;20442;-71
2023/09/02 01:23:29;;;;;;;4.43;1.87;;;16.10;99.90;;;;;;5038069;28;20480;-71
2023/09/02 01:26:28;;;;;;;6.87;2.00;;;16.10;99.90;;;;;;5043972;28;20435;-71
2023/09/02 01:29:19;;;;;;;5.47;2.07;;;16.10;99.90;;;;;;5035839;28;20430;-71
2023/09/02 01:32:07;;;;;;;46.57;2.40;;;16.10;99.90;;;;;;5040384;28;20820;-71
2023/09/02 01:34:54;;;;;;;13.90;2.33;;;16.10;99.90;;;;;;5036517;28;20482;-71
2023/09/02 01:37:43;;;;;;;4.43;2.43;;;16.10;99.90;;;;;;5034643;28;20987;-71
2023/09/02 01:40:30;;;;;;;3.60;2.10;;;16.10;99.90;;;;;;5039621;28;20427;-71
2023/09/02 01:43:20;;;;;;;5.33;1.70;;;16.10;99.90;;;;;;5034828;28;20818;-71
2023/09/02 01:46:08;;;;;;;5.50;2.00;;;16.20;99.90;;;;;;5040489;28;20460;-71
2023/09/02 01:48:55;;;;;;;11.07;2.50;;;16.20;99.90;;;;;;5036592;28;20426;-71
2023/09/02 01:51:41;;;;;;;13.90;3.33;;;16.20;99.90;;;;;;5042609;28;20435;-71
2023/09/02 01:54:27;;;;;;;3.40;2.60;;;16.20;99.90;;;;;;5041096;28;20418;-71
2023/09/02 01:57:13;;;;;;;5.50;2.33;;;16.20;99.90;;;;;;5042751;28;20494;-71
2023/09/02 01:59:58;;;;;;;14.70;2.90;;;16.20;99.90;;;;;;5043936;28;20490;-71
2023/09/02 02:02:49;;;;;;;12.03;2.67;;;16.20;99.90;;;;;;5040741;28;20460;-71
2023/09/02 02:05:38;;;;;;;9.87;2.50;;;16.20;99.90;;;;;;5039082;28;20597;-71
2023/09/02 02:08:30;;;;;;;9.33;2.27;;;16.10;99.90;;;;;;5037390;28;20523;-71
2023/09/02 02:11:16;;;;;;;7.80;2.07;;;16.10;99.90;;;;;;5041234;28;20429;-71
2023/09/02 02:14:02;;;;;;;3.57;2.53;;;16.10;99.90;;;;;;5040161;28;20484;-71
2023/09/02 02:16:48;;;;;;;9.37;2.50;;;16.10;99.90;;;;;;5038657;28;20550;-71
2023/09/02 02:19:35;;;;;;;4.70;1.97;;;16.20;99.90;;;;;;5043160;28;20410;-71
2023/09/02 02:22:21;;;;;;;8.37;2.47;;;16.20;99.90;;;;;;5039548;28;20554;-72
2023/09/02 02:25:06;;;;;;;16.00;2.30;;;16.20;99.90;;;;;;5042818;28;20436;-71
2023/09/02 02:27:52;;;;;;;11.77;2.00;;;16.20;99.90;;;;;;5038814;28;20506;-71
2023/09/02 02:30:38;;;;;;;27.50;2.33;;;16.20;99.90;;;;;;5041011;28;20839;-71
2023/09/02 02:33:24;;;;;;;16.33;2.83;;;16.20;99.90;;;;;;5043001;28;20508;-71
2023/09/02 02:36:11;;;;;;;17.33;3.77;;;16.20;99.90;;;;;;5037803;28;20479;-71
2023/09/02 02:38:56;;;;;;;5.03;2.23;;;16.20;99.90;;;;;;5044956;28;22074;-71
2023/09/02 02:41:42;;;;;;;6.70;2.53;;;16.20;99.90;;;;;;5046855;28;20606;-71
2023/09/02 02:44:27;;;;;;;10.53;2.30;;;16.20;99.90;;;;;;5038700;28;20466;-71
2023/09/02 02:47:13;;;;;;;31.47;3.30;;;16.20;99.90;;;;;;5034605;28;20419;-71
2023/09/02 02:49:59;;;;;;;2.73;2.37;;;16.20;99.90;;;;;;5038796;28;20531;-71
2023/09/02 02:52:46;;;;;;;16.17;2.30;;;16.10;99.90;;;;;;5044667;28;20512;-71
2023/09/02 02:55:31;;;;;;;12.10;2.27;;;16.20;99.90;;;;;;5040094;28;20480;-71
2023/09/02 02:58:17;;;;;;;5.53;2.23;;;16.20;99.90;;;;;;5042136;28;20560;-71
2023/09/02 03:01:04;;;;;;;3.47;2.40;;;16.20;99.90;;;;;;5045814;28;20464;-71
2023/09/02 03:03:50;;;;;;;7.93;2.70;;;16.20;99.90;;;;;;5041600;28;20562;-71
2023/09/02 03:06:36;;;;;;;8.87;2.10;;;16.20;99.90;;;;;;5038184;28;20436;-71
2023/09/02 03:09:23;;;;;;;5.80;2.30;;;16.20;99.90;;;;;;5040862;28;20912;-71
2023/09/02 03:12:08;;;;;;;7.53;2.10;;;16.20;99.90;;;;;;5039328;28;20532;-71
2023/09/02 03:14:54;;;;;;;7.50;2.80;;;16.10;99.90;;;;;;5036294;28;20591;-71
2023/09/02 03:17:40;;;;;;;3.50;2.03;;;16.10;99.90;;;;;;5047477;28;20451;-71
2023/09/02 03:20:25;;;;;;;5.53;2.13;;;16.10;99.90;;;;;;5040783;28;20568;-71
2023/09/02 03:23:11;;;;;;;21.43;2.77;;;16.20;99.90;;;;;;5039946;28;20518;-71
2023/09/02 03:26:07;;;;;;;2.77;1.90;;;16.20;99.90;;;;;;5042929;28;20447;-70
2023/09/02 03:28:53;;;;;;;19.27;2.87;;;16.20;99.90;;;;;;5038802;28;21189;-70
2023/09/02 03:31:39;;;;;;;4.63;2.30;;;16.20;99.90;;;;;;5041581;28;20438;-70
2023/09/02 03:34:25;;;;;;;2.80;2.30;;;16.20;99.90;;;;;;5042636;28;20438;-70
2023/09/02 03:37:10;;;;;;;4.33;3.17;;;16.10;99.90;;;;;;5049848;28;20493;-70
2023/09/02 03:39:57;;;;;;;5.07;2.50;;;16.20;99.90;;;;;;5047968;28;20578;-70
2023/09/02 03:42:44;;;;;;;30.80;2.87;;;16.10;99.90;;;;;;5041058;28;20970;-70
2023/09/02 03:45:29;;;;;;;2.70;2.23;;;16.00;99.90;;;;;;5038130;28;20851;-70
2023/09/02 03:48:17;;;;;;;15.30;2.80;;;16.00;99.90;;;;;;5044189;28;20416;-70
2023/09/02 03:51:05;;;;;;;2.73;2.20;;;16.00;99.90;;;;;;5041392;28;20483;-70
2023/09/02 03:53:51;;;;;;;23.13;3.73;;;16.00;99.90;;;;;;5041236;28;20589;-70
2023/09/02 03:56:39;;;;;;;2.93;2.60;;;16.00;99.90;;;;;;5040166;28;20573;-70
2023/09/02 03:59:26;;;;;;;5.37;2.93;;;16.00;99.90;;;;;;5041232;28;20932;-70
2023/09/02 04:02:11;;;;;;;4.40;1.87;;;16.00;99.90;;;;;;5045498;28;20433;-70
2023/09/02 04:04:57;;;;;;;1.80;1.33;;;16.00;99.90;;;;;;5043314;28;20456;-70
2023/09/02 04:07:42;;;;;;;6.00;1.37;;;15.90;99.90;;;;;;5039007;28;20464;-70
2023/09/02 04:10:28;;;;;;;13.60;2.17;;;15.90;99.90;;;;;;5041349;28;20805;-70
2023/09/02 04:13:14;;;;;;;25.93;1.87;;;15.90;99.90;;;;;;5044933;28;21049;-70
2023/09/02 04:16:02;;;;;;;2.73;1.83;;;15.80;99.90;;;;;;5042313;28;20468;-70
2023/09/02 04:18:48;;;;;;;4.70;2.10;;;15.80;99.90;;;;;;5043255;28;21191;-70
2023/09/02 04:21:34;;;;;;;2.17;1.77;;;15.70;99.90;;;;;;5044205;28;20484;-70
2023/09/02 04:24:19;;;;;;;2.53;1.77;;;15.80;99.90;;;;;;5042871;28;20553;-70
2023/09/02 04:27:05;;;;;;;4.70;1.50;;;15.80;99.90;;;;;;5052914;28;20410;-70
2023/09/02 04:29:53;;;;;;;2.20;1.63;;;15.80;99.90;;;;;;5044756;28;20593;-70
2023/09/02 04:32:40;;;;;;;1.93;1.40;;;15.80;99.90;;;;;;5041544;28;20434;-70
2023/09/02 04:35:25;;;;;;;4.90;1.67;;;15.80;99.90;;;;;;5037956;28;20517;-70
2023/09/02 04:38:12;;;;;;;3.03;1.80;;;15.80;99.90;;;;;;5044359;28;21017;-70
2023/09/02 04:40:57;;;;;;;6.60;1.90;;;15.80;99.90;;;;;;5038655;28;20502;-70
2023/09/02 04:43:43;;;;;;;9.13;1.90;;;15.70;99.90;;;;;;5039276;28;20960;-70
2023/09/02 04:46:29;;;;;;;2.30;1.83;;;15.60;99.90;;;;;;5045592;28;20588;-70
2023/09/02 04:49:16;;;;;;;5.33;2.03;;;15.60;99.90;;;;;;5044964;28;20414;-70
2023/09/02 04:52:03;;;;;;;9.77;2.40;;;15.50;99.90;;;;;;5039966;28;20463;-70
2023/09/02 04:54:48;;;;;;;2.10;1.67;;;15.50;99.90;;;;;;5043430;28;20451;-70
2023/09/02 04:57:34;;;;;;;4.70;1.90;;;15.60;99.90;;;;;;5039593;28;20920;-70
2023/09/02 05:00:20;;;;;;;5.60;1.93;;;15.60;99.90;;;;;;5045153;28;20434;-70
2023/09/02 05:03:08;;;;;;;6.13;1.90;;;15.70;99.90;;;;;;5040315;28;20474;-70
2023/09/02 05:05:56;;;;;;;11.70;1.73;;;15.70;99.90;;;;;;5040658;28;20522;-70
2023/09/02 05:08:41;;;;;;;10.23;1.83;;;15.70;99.90;;;;;;5043118;28;20844;-70
2023/09/02 05:11:27;;;;;;;5.40;2.37;;;15.70;99.90;;;;;;5044700;28;20542;-70
2023/09/02 05:14:12;;;;;;;2.10;1.73;;;15.70;99.90;;;;;;5061521;22;20566;-77
2023/09/02 05:16:58;;;;;;;35.97;2.10;;;15.70;99.90;;;;;;5040625;28;20685;-76
2023/09/02 05:19:44;;;;;;;48.27;2.50;;;15.70;99.90;;;;;;5043266;28;20422;-76
2023/09/02 05:22:31;;;;;;;15.40;1.90;;;15.60;99.90;;;;;;5042988;28;20438;-75
2023/09/02 05:25:17;;;;;;;2.00;1.43;;;15.70;99.90;;;;;;5046355;28;20439;-75
2023/09/02 05:28:03;;;;;;;2.30;1.70;;;15.70;99.90;;;;;;5045367;28;20443;-76
2023/09/02 05:30:48;;;;;;;5.40;1.73;;;15.70;99.90;;;;;;5044574;28;20925;-76
2023/09/02 05:33:34;;;;;;;2.83;1.60;;;15.70;99.90;;;;;;5040780;28;20463;-75
2023/09/02 05:36:20;;;;;;;11.13;2.07;;;15.60;99.90;;;;;;5043967;28;20499;-75
2023/09/02 05:39:07;;;;;;;4.67;2.20;;;15.60;99.90;;;;;;5043871;28;20578;-75
2023/09/02 05:41:53;;;;;;;2.50;1.93;;;15.60;99.90;;;;;;5043735;28;20445;-74
2023/09/02 05:44:38;;;;;;;3.60;2.50;;;15.70;99.90;;;;;;5037157;28;20522;-75
2023/09/02 05:47:24;;;;;;;2.20;1.80;;;15.80;99.90;;;;;;5046654;28;22353;-74
2023/09/02 05:50:10;;;;;;;3.27;1.73;;;15.90;99.90;;;;;;5045330;28;20811;-74
2023/09/02 05:52:55;;;;;;;4.00;1.83;;;15.90;99.90;;;;;;5043645;28;20948;-76
2023/09/02 05:55:42;;;;;;;1.73;1.40;;;15.90;99.90;;;;;;5043385;28;20467;-76
2023/09/02 05:58:28;;;;;;;3.00;1.70;;;16.00;99.90;;;;;;5044928;28;20406;-74
2023/09/02 06:01:13;;;;;;;1.80;1.30;;;16.10;99.90;;;;;;5047149;28;20486;-75
2023/09/02 06:03:59;;;;;;;2.47;1.57;;;16.10;99.90;;;;;;5044826;28;20985;-75
2023/09/02 06:06:44;;;;;;;1.90;1.50;;;16.10;99.90;;;;;;5047777;28;20504;-75
2023/09/02 06:09:31;;;;;;;5.53;1.50;;;16.10;99.90;;;;;;5046286;28;20460;-76
2023/09/02 06:12:18;;;;;;;2.20;1.53;;;16.20;99.90;;;;;;5049065;28;20442;-76
2023/09/02 06:15:03;;;;;;;2.60;1.53;;;16.20;99.90;;;;;;5042910;28;20564;-76
2023/09/02 06:17:49;;;;;;;2.20;1.70;;;16.10;99.90;;;;;;5045148;28;20479;-76
2023/09/02 06:20:35;;;;;;;1.90;1.50;;;16.20;99.90;;;;;;5045281;28;20933;-75
2023/09/02 06:23:21;;;;;;;2.77;1.60;;;16.10;99.90;;;;;;5047012;28;20532;-76
2023/09/02 06:26:06;;;;;;;2.17;1.30;;;16.10;99.90;;;;;;5046383;28;20449;-76
2023/09/02 06:28:53;;;;;;;1.90;1.43;;;16.20;99.90;;;;;;5049092;28;20451;-76
2023/09/02 06:31:39;;;;;;;2.97;2.10;;;16.30;99.90;;;;;;5042317;28;20432;-75
2023/09/02 06:34:25;;;;;;;2.20;1.53;;;16.40;99.90;;;;;;5042752;28;20459;-76
2023/09/02 06:37:10;;;;;;;2.20;1.50;;;16.40;99.90;;;;;;5050143;28;20599;-76
2023/09/02 06:39:56;;;;;;;2.10;1.33;;;16.40;99.90;;;;;;5042991;28;20411;-76
2023/09/02 06:42:41;;;;;;;4.73;1.80;;;16.50;99.90;;;;;;5044686;28;20978;-76
2023/09/02 06:45:28;;;;;;;2.50;1.57;;;16.50;99.90;;;;;;5045543;28;20510;-76
2023/09/02 06:48:14;;;;;;;3.43;1.40;;;16.50;99.90;;;;;;5046343;28;20551;-76
2023/09/02 06:51:00;;;;;;;2.40;1.53;;;16.60;99.90;;;;;;5045106;28;20435;-75
2023/09/02 06:53:45;;;;;;;2.10;1.77;;;16.60;99.90;;;;;;5044099;28;20622;-76
2023/09/02 06:56:31;;;;;;;2.80;1.90;;;16.70;99.90;;;;;;5045675;28;20446;-76
2023/09/02 06:59:17;;;;;;;1.90;1.40;;;16.80;99.90;;;;;;5042634;28;20524;-77
2023/09/02 07:02:04;;;;;;;1.80;1.30;;;16.90;99.90;;;;;;5040427;28;20422;-76
2023/09/02 07:04:50;;;;;;;3.63;1.50;;;16.90;99.90;;;;;;5045183;28;20496;-76
2023/09/02 07:07:37;;;;;;;3.43;1.60;;;17.00;99.90;;;;;;5047668;28;20884;-76
2023/09/02 07:10:22;;;;;;;4.80;1.73;;;17.00;99.90;;;;;;5052112;28;20421;-76
2023/09/02 07:13:08;;;;;;;2.30;1.50;;;17.10;99.90;;;;;;5049849;28;20682;-76
2023/09/02 07:15:59;;;;;;;1.90;1.40;;;17.10;99.90;;;;;;5049229;28;20422;-76
2023/09/02 07:18:46;;;;;;;4.13;1.40;;;17.30;99.90;;;;;;5043950;28;20536;-76
2023/09/02 07:21:32;;;;;;;2.00;1.20;;;17.40;99.90;;;;;;5047190;28;20819;-74
2023/09/02 07:24:18;;;;;;;2.60;1.63;;;17.40;99.90;;;;;;5047856;28;20810;-76
2023/09/02 07:27:04;;;;;;;2.17;1.60;;;17.50;99.90;;;;;;5045946;28;20439;-75
2023/09/02 07:29:49;;;;;;;3.90;1.40;;;17.60;99.90;;;;;;5042892;28;20460;-76
2023/09/02 07:32:35;;;;;;;2.30;1.53;;;17.70;99.90;;;;;;5048708;28;20483;-76
2023/09/02 07:35:22;;;;;;;1.70;1.20;;;17.80;99.90;;;;;;5040352;28;20424;-76
2023/09/02 07:38:08;;;;;;;2.67;1.40;;;17.90;99.90;;;;;;5045662;28;20494;-77
2023/09/02 07:40:54;;;;;;;2.50;1.37;;;18.00;99.90;;;;;;5048870;28;20451;-76
2023/09/02 07:43:39;;;;;;;2.50;1.23;;;18.10;99.90;;;;;;5047002;28;20454;-75
2023/09/02 07:46:25;;;;;;;2.73;1.53;;;18.10;99.90;;;;;;5053541;28;20960;-77
2023/09/02 07:49:11;;;;;;;2.80;1.47;;;18.20;99.90;;;;;;5049467;28;20415;-76
2023/09/02 07:51:58;;;;;;;3.83;1.67;;;18.30;99.90;;;;;;5046239;28;20481;-77
2023/09/02 07:54:44;;;;;;;4.70;2.10;;;18.30;99.90;;;;;;5046599;28;20419;-76
2023/09/02 07:57:30;;;;;;;3.40;2.63;;;18.40;99.90;;;;;;5052989;28;20470;-76
2023/09/02 08:00:16;;;;;;;3.40;1.47;;;18.50;99.90;;;;;;5047310;28;20430;-77
2023/09/02 08:03:02;;;;;;;3.20;1.47;;;18.50;99.90;;;;;;5046294;28;20457;-75
2023/09/02 08:05:48;;;;;;;2.40;1.50;;;18.60;99.90;;;;;;5047132;28;20553;-75
2023/09/02 08:08:35;;;;;;;3.97;1.53;;;18.60;99.90;;;;;;5047345;28;20440;-76
2023/09/02 08:11:21;;;;;;;2.23;1.30;;;18.70;99.90;;;;;;5046541;28;20426;-76
2023/09/02 08:14:06;;;;;;;5.10;3.43;;;18.80;99.90;;;;;;5047290;28;20443;-76
2023/09/02 08:16:52;;;;;;;7.80;2.53;;;18.90;99.90;;;;;;5048875;28;20471;-75
2023/09/02 08:19:38;;;;;;;5.20;1.53;;;18.90;99.90;;;;;;5051847;28;20424;-76
2023/09/02 08:22:24;;;;;;;4.70;1.70;;;19.00;99.90;;;;;;5046422;28;20952;-76
2023/09/02 08:25:11;;;;;;;6.03;1.30;;;19.00;99.90;;;;;;5043495;28;20461;-76
2023/09/02 08:27:57;;;;;;;2.40;1.37;;;19.10;99.90;;;;;;5045749;28;20808;-76
2023/09/02 08:30:44;;;;;;;3.70;1.27;;;19.20;99.90;;;;;;5044683;28;20471;-76
2023/09/02 08:33:30;;;;;;;1.93;1.30;;;19.30;99.90;;;;;;5040410;28;20517;-76
2023/09/02 08:36:16;;;;;;;2.80;1.23;;;19.40;99.90;;;;;;5046761;28;20531;-76
2023/09/02 08:39:01;;;;;;;2.10;1.30;;;19.50;99.90;;;;;;5040021;28;20965;-76
2023/09/02 08:41:50;;;;;;;5.03;1.60;;;19.60;99.90;;;;;;5043983;28;20420;-75
2023/09/02 08:44:37;;;;;;;3.70;0.90;;;19.70;99.90;;;;;;5042982;28;20969;-76
2023/09/02 08:47:25;;;;;;;2.03;1.20;;;19.80;99.90;;;;;;5048607;28;20458;-74
2023/09/02 08:50:12;;;;;;;5.23;1.23;;;19.80;99.90;;;;;;5041872;28;20595;-74
2023/09/02 08:52:58;;;;;;;1.80;1.23;;;19.90;99.90;;;;;;5043912;28;20515;-76
2023/09/02 08:55:45;;;;;;;10.00;1.63;;;20.00;99.90;;;;;;5045773;28;20449;-76
2023/09/02 08:58:33;;;;;;;2.20;1.20;;;20.10;99.90;;;;;;5044838;28;20466;-77
2023/09/02 09:01:21;;;;;;;1.53;0.80;;;20.10;99.90;;;;;;5043716;28;20749;-75
2023/09/02 09:04:08;;;;;;;3.73;1.00;;;20.20;99.90;;;;;;5042063;28;20477;-75
2023/09/02 09:06:54;;;;;;;2.73;1.27;;;20.40;99.90;;;;;;5039991;28;22537;-76
2023/09/02 09:09:40;;;;;;;2.40;1.00;;;20.50;99.90;;;;;;5046428;28;20447;-76
2023/09/02 09:12:29;;;;;;;3.33;1.00;;;20.50;99.90;;;;;;5045646;28;20454;-77
2023/09/02 09:15:19;;;;;;;4.93;1.07;;;20.60;99.90;;;;;;5045246;28;21046;-76
2023/09/02 09:18:06;;;;;;;1.83;1.00;;;20.60;99.90;;;;;;5048841;28;20507;-76
2023/09/02 09:20:51;;;;;;;2.40;0.93;;;20.80;99.90;;;;;;5039286;28;20450;-77
2023/09/02 09:23:37;;;;;;;2.60;1.10;;;20.80;99.90;;;;;;5041557;28;20493;-77
2023/09/02 09:26:25;;;;;;;1.90;0.80;;;20.90;99.90;;;;;;5045582;28;20606;-77
2023/09/02 09:29:13;;;;;;;1.70;0.90;;;20.80;99.90;;;;;;5045888;28;20943;-77
2023/09/02 09:32:10;;;;;;;1.50;0.80;;;20.90;99.90;;;;;;5045623;28;20580;-77
2023/09/02 09:34:56;;;;;;;1.70;0.97;;;21.10;99.90;;;;;;5051751;28;20421;-77
2023/09/02 09:37:53;;;;;;;2.87;1.00;;;21.20;99.90;;;;;;5045201;28;20510;-76
2023/09/02 09:40:39;;;;;;;2.13;1.03;;;21.30;99.90;;;;;;5042023;28;20447;-77
2023/09/02 09:43:27;;;;;;;1.80;1.00;;;21.40;99.90;;;;;;5044269;28;20450;-77
2023/09/02 09:46:16;;;;;;;2.00;0.90;;;21.50;99.90;;;;;;5044472;28;20454;-76
2023/09/02 09:49:04;;;;;;;2.90;1.00;;;21.70;99.90;;;;;;5042853;28;20810;-76
2023/09/02 09:51:52;;;;;;;1.90;0.80;;;21.80;99.90;;;;;;5048568;28;20417;-74
2023/09/02 09:54:39;;;;;;;2.30;1.10;;;21.80;99.90;;;;;;5042190;28;20434;-76
2023/09/02 09:57:35;;;;;;;2.47;1.00;;;21.90;99.90;;;;;;5043176;28;20613;-77
2023/09/02 10:00:20;;;;;;;2.70;0.80;;;22.00;99.90;;;;;;5042107;28;21000;-77
2023/09/02 10:03:06;;;;;;;2.67;0.77;;;22.10;99.90;;;;;;5040947;28;20463;-76
2023/09/02 10:05:59;;;;;;;2.70;0.97;;;22.20;99.90;;;;;;5044053;28;20448;-76
2023/09/02 10:08:52;;;;;;;1.80;1.00;;;22.30;99.90;;;;;;5043288;28;20455;-76
2023/09/02 10:11:37;;;;;;;3.20;1.13;;;22.40;99.90;;;;;;5046040;28;20530;-76
2023/09/02 10:14:23;;;;;;;2.33;1.03;;;22.50;99.90;;;;;;5044152;28;20474;-75
2023/09/02 10:17:10;;;;;;;1.80;0.70;;;22.60;99.90;;;;;;5047603;28;20581;-75
2023/09/02 10:19:55;;;;;;;2.87;0.80;;;22.70;99.90;;;;;;5046123;28;20447;-76
2023/09/02 10:22:45;;;;;;;1.80;0.70;;;22.70;99.90;;;;;;5047038;28;21175;-76
2023/09/02 10:25:36;;;;;;;1.73;0.70;;;22.80;99.90;;;;;;5047653;28;20463;-76
2023/09/02 10:28:25;;;;;;;2.00;0.80;;;22.80;99.90;;;;;;5040173;28;20406;-76
2023/09/02 10:31:20;;;;;;;3.00;1.20;;;22.90;99.90;;;;;;5048178;28;20439;-74
2023/09/02 10:34:11;;;;;;;2.00;0.73;;;23.00;99.90;;;;;;5048472;28;20538;-76
2023/09/02 10:36:58;;;;;;;2.40;0.87;;;23.20;99.90;;;;;;5044884;28;20430;-75
2023/09/02 10:39:51;;;;;;;1.70;0.77;;;23.40;99.90;;;;;;5039285;28;20417;-76
2023/09/02 10:42:37;;;;;;;2.07;0.70;;;23.50;99.90;;;;;;5047285;28;20470;-72
2023/09/02 10:45:23;;;;;;;1.60;0.70;;;23.60;99.90;;;;;;5046292;28;20453;-77
2023/09/02 10:48:09;;;;;;;1.90;1.00;;;23.70;99.90;;;;;;5045420;28;20530;-76
2023/09/02 10:50:56;;;;;;;2.90;1.30;;;23.80;99.90;;;;;;5049627;28;21001;-74
2023/09/02 10:54:02;;;;;;;1.90;0.90;;;23.90;99.90;;;;;;5045910;28;20477;-77
2023/09/02 10:56:51;;;;;;;2.20;1.00;;;23.90;99.90;;;;;;5043835;28;20534;-75
2023/09/02 10:59:37;;;;;;;6.13;1.00;;;24.00;99.90;;;;;;5041431;28;20451;-77
2023/09/02 11:02:40;;;;;;;4.10;1.10;;;24.00;99.90;;;;;;5045934;28;20536;-77
2023/09/02 11:05:28;;;;;;;2.63;1.07;;;24.10;99.90;;;;;;5045425;28;20446;-76
2023/09/02 11:08:40;;;;;;;4.93;0.90;;;24.20;99.90;;;;;;5042666;28;20447;-77
2023/09/02 11:12:16;;;;;;;2.33;1.20;;;24.30;99.90;;;;;;5040644;28;20455;-76
2023/09/02 11:15:24;;;;;;;2.20;1.20;;;24.40;99.90;;;;;;5062670;22;20482;-71
2023/09/02 11:18:32;;;;;;;2.13;1.10;;;24.50;99.90;;;;;;5062991;28;20483;-71
2023/09/02 11:21:36;;;;;;;2.00;1.10;;;24.50;99.90;;;;;;5063176;28;20457;-71
2023/09/02 11:24:23;;;;;;;2.20;1.00;;;24.60;99.90;;;;;;5046707;28;20441;-71
2023/09/02 11:27:09;;;;;;;2.27;1.00;;;24.70;99.90;;;;;;5039951;28;20543;-71
2023/09/02 11:30:09;;;;;;;2.10;1.00;;;24.70;99.90;;;;;;5036677;28;20443;-71
2023/09/02 11:32:56;;;;;;;2.00;1.00;;;24.80;99.90;;;;;;5039125;28;20503;-71
2023/09/02 11:35:43;;;;;;;2.50;1.40;;;24.80;99.90;;;;;;5041518;28;20704;-71
2023/09/02 11:38:29;;;;;;;2.20;1.10;;;24.90;99.90;;;;;;5038624;28;20447;-71
2023/09/02 11:41:21;;;;;;;2.23;1.20;;;24.80;99.90;;;;;;5038907;28;20456;-71
2023/09/02 11:44:10;;;;;;;4.40;1.40;;;24.90;99.90;;;;;;5041501;28;20485;-71
2023/09/02 11:46:55;;;;;;;11.73;1.70;;;25.00;99.90;;;;;;5043211;28;20526;-71
2023/09/02 11:49:44;;;;;;;2.43;1.17;;;25.10;99.90;;;;;;5046538;28;20896;-71
2023/09/02 11:52:30;;;;;;;2.47;1.30;;;25.10;99.90;;;;;;5040080;28;20936;-71
2023/09/02 11:55:17;;;;;;;2.80;1.30;;;25.20;99.90;;;;;;5038259;28;20449;-71
2023/09/02 11:58:10;;;;;;;2.47;1.30;;;25.30;99.90;;;;;;5038756;28;21171;-71
2023/09/02 12:00:55;;;;;;;2.67;1.30;;;25.40;99.90;;;;;;5044730;28;20426;-71
2023/09/02 12:03:41;;;;;;;7.73;1.37;;;25.50;99.90;;;;;;5039910;28;20464;-71
2023/09/02 12:06:31;;;;;;;3.10;1.27;;;25.60;99.90;;;;;;5041112;28;20591;-71
2023/09/02 12:09:18;;;;;;;3.23;1.20;;;25.70;99.90;;;;;;5042372;28;20579;-71
2023/09/02 12:12:04;;;;;;;2.33;1.00;;;25.70;99.90;;;;;;5043104;28;20480;-71
2023/09/02 12:14:50;;;;;;;4.37;1.23;;;25.80;99.90;;;;;;5039883;28;20456;-71
2023/09/02 12:17:35;;;;;;;2.43;0.87;;;25.90;99.90;;;;;;5043748;28;20443;-71
2023/09/02 12:20:21;;;;;;;3.57;1.50;;;25.90;99.90;;;;;;5043809;28;20494;-71
2023/09/02 12:23:08;;;;;;;2.70;1.30;;;26.00;99.90;;;;;;5038478;28;20444;-71
2023/09/02 12:26:08;;;;;;;2.73;1.30;;;26.10;99.90;;;;;;5039274;28;20446;-71
2023/09/02 12:28:54;;;;;;;4.93;1.40;;;26.10;99.90;;;;;;5043648;28;20439;-71
2023/09/02 12:31:40;;;;;;;5.13;2.07;;;26.00;99.90;;;;;;5040439;28;20593;-71
2023/09/02 12:34:33;;;;;;;3.37;1.10;;;25.70;99.90;;;;;;5037884;28;20483;-71
2023/09/02 12:37:20;;;;;;;5.13;1.50;;;25.60;99.90;;;;;;5042261;28;20449;-71
2023/09/02 12:40:12;;;;;;;3.20;1.33;;;25.70;99.90;;;;;;5033447;28;20481;-71
2023/09/02 12:42:58;;;;;;;2.77;1.17;;;25.90;99.90;;;;;;5039880;28;20993;-70
2023/09/02 12:45:44;;;;;;;3.37;2.03;;;26.00;99.90;;;;;;5039420;28;20450;-72
2023/09/02 12:48:30;;;;;;;25.80;23.03;;;26.20;99.90;;;;;;5036364;28;20467;-71
2023/09/02 12:51:27;;;;;;;5.40;2.87;;;26.30;99.90;;;;;;5046236;28;20592;-71
2023/09/02 12:54:14;;;;;;;2.70;1.57;;;26.50;99.90;;;;;;5042890;28;20475;-71
2023/09/02 12:57:01;;;;;;;11.10;8.40;;;26.70;99.90;;;;;;5042264;28;20459;-71
2023/09/02 12:59:46;;;;;;;3.67;2.80;;;26.60;85.80;;;;;;5036629;28;20454;-71
2023/09/02 13:02:32;;;;;;;4.60;1.57;;;26.70;92.60;;;;;;5044218;28;20535;-71
2023/09/02 13:05:18;;;;;;;3.30;1.47;;;27.00;92.80;;;;;;5033207;28;20461;-71
2023/09/02 13:08:05;;;;;;;4.40;1.60;;;27.20;89.30;;;;;;5039725;28;20460;-72
2023/09/02 13:10:50;;;;;;;4.13;1.67;;;27.40;82.20;;;;;;5043166;28;20478;-72
2023/09/02 13:13:37;;;;;;;2.60;1.40;;;27.70;85.30;;;;;;5029998;28;21043;-72
2023/09/02 13:16:25;;;;;;;2.83;1.30;;;27.40;59.10;;;;;;5040182;28;20437;-72
2023/09/02 13:19:10;;;;;;;5.50;2.00;;;27.20;70.30;;;;;;5045641;28;20579;-72
2023/09/02 13:21:57;;;;;;;3.87;1.87;;;26.90;76.70;;;;;;5045335;28;20462;-71
2023/09/02 13:24:45;;;;;;;5.93;1.70;;;26.90;56.50;;;;;;5043406;28;20461;-71
2023/09/02 13:27:32;;;;;;;4.10;1.43;;;26.90;62.60;;;;;;5039792;28;20451;-72
2023/09/02 13:30:23;;;;;;;2.80;1.60;;;27.10;55.00;;;;;;5045652;28;20813;-72
2023/09/02 13:33:08;;;;;;;2.60;1.30;;;27.30;59.20;;;;;;5052948;28;20817;-72
2023/09/02 13:35:54;;;;;;;9.23;1.53;;;27.30;59.70;;;;;;5042118;28;20494;-72
2023/09/02 13:38:40;;;;;;;4.33;1.57;;;27.20;58.40;;;;;;5046071;28;20907;-72
2023/09/02 13:41:25;;;;;;;2.40;1.27;;;27.40;60.30;;;;;;5043002;28;20445;-72
2023/09/02 13:44:10;;;;;;;3.00;1.23;;;27.60;61.00;;;;;;5044682;28;20944;-71
2023/09/02 13:47:05;;;;;;;3.00;1.40;;;27.50;61.70;;;;;;5046909;28;20439;-72
2023/09/02 13:49:54;;;;;;;4.63;1.60;;;27.50;60.50;;;;;;5042637;28;20446;-72
2023/09/02 13:52:40;;;;;;;4.80;1.53;;;27.80;55.70;;;;;;5044624;28;20440;-72
2023/09/02 13:55:36;;;;;;;4.80;1.33;;;27.50;47.00;;;;;;5047224;28;20441;-72
2023/09/02 13:58:21;;;;;;;3.30;1.63;;;27.40;43.40;;;;;;5040864;28;20441;-72
2023/09/02 14:01:07;;;;;;;2.77;1.70;;;27.40;47.60;;;;;;5046369;28;20453;-71
2023/09/02 14:03:54;;;;;;;3.13;1.30;;;27.70;54.20;;;;;;5032384;28;20948;-72
2023/09/02 14:06:40;;;;;;;2.60;1.23;;;27.70;46.60;;;;;;5039793;28;20842;-72
2023/09/02 14:09:25;;;;;;;2.73;1.47;;;27.60;40.90;;;;;;5036322;28;20432;-72
2023/09/02 14:12:13;;;;;;;3.93;1.73;;;27.50;43.50;;;;;;5038400;28;20422;-71
2023/09/02 14:14:59;;;;;;;6.70;1.87;;;27.50;45.50;;;;;;5036474;28;20476;-71
2023/09/02 14:17:44;;;;;;;3.47;1.73;;;27.80;54.70;;;;;;5037353;28;20433;-71
2023/09/02 14:20:32;;;;;;;4.33;1.27;;;28.10;57.50;;;;;;5039156;28;20466;-71
2023/09/02 14:23:18;;;;;;;7.20;1.20;;;28.40;50.00;;;;;;5035032;28;21054;-71
2023/09/02 14:26:04;;;;;;;2.83;1.60;;;28.60;43.90;;;;;;5036495;28;20452;-71
2023/09/02 14:28:49;;;;;;;5.23;1.50;;;28.50;39.50;;;;;;5035790;28;20439;-71
2023/09/02 14:31:35;;;;;;;2.93;1.77;;;28.30;39.60;;;;;;5032907;28;20466;-71